sensor_id;sensor_type;location;lat;lon;timestamp;temperature;humidity
33803;DHT22;20110;53.120;5.786;2023-03-02T00:01:37;1.80;99.90
33803;DHT22;20110;53.120;5.786;2023-03-02T00:04:06;1.80;99.90
33803;DHT22;20110;53.120;5.786;2023-03-02T00:06:34;1.80;99.90
33803;DHT22;20110;53.120;5.786;2023-03-02T00:09:02;1.80;99.90
33803;DHT22;20110;53.120;5.786;2023-03-02T00:11:29;1.90;99.90
33803;DHT22;20110;53.120;5.786;2023-03-02T00:13:57;1.80;99.90
33803;DHT22;20110;53.120;5.786;2023-03-02T00:16:22;1.80;99.90
33803;DHT22;20110;53.120;5.786;2023-03-02T00:18:48;1.80;99.90
33803;DHT22;20110;53.120;5.786;2023-03-02T00:21:14;1.70;99.90
33803;DHT22;20110;53.120;5.786;2023-03-02T00:23:40;1.60;99.90
33803;DHT22;20110;53.120;5.786;2023-03-02T00:26:06;1.70;99.90
33803;DHT22;20110;53.120;5.786;2023-03-02T00:28:32;1.70;99.90
33803;DHT22;20110;53.120;5.786;2023-03-02T00:30:59;1.70;99.90
33803;DHT22;20110;53.120;5.786;2023-03-02T00:33:29;1.80;99.90
33803;DHT22;20110;53.120;5.786;2023-03-02T00:35:55;1.70;99.90
33803;DHT22;20110;53.120;5.786;2023-03-02T00:38:21;1.80;99.90
33803;DHT22;20110;53.120;5.786;2023-03-02T00:40:47;1.70;99.90
33803;DHT22;20110;53.120;5.786;2023-03-02T00:43:15;1.70;99.90
33803;DHT22;20110;53.120;5.786;2023-03-02T00:45:41;1.80;99.90
33803;DHT22;20110;53.120;5.786;2023-03-02T00:48:07;1.50;99.90
33803;DHT22;20110;53.120;5.786;2023-03-02T00:50:33;1.40;99.90
33803;DHT22;20110;53.120;5.786;2023-03-02T00:53:08;1.40;99.90
33803;DHT22;20110;53.120;5.786;2023-03-02T00:55:36;1.40;99.90
33803;DHT22;20110;53.120;5.786;2023-03-02T00:58:03;1.50;99.90
33803;DHT22;20110;53.120;5.786;2023-03-02T01:00:30;1.60;99.90
33803;DHT22;20110;53.120;5.786;2023-03-02T01:02:57;1.60;99.90
33803;DHT22;20110;53.120;5.786;2023-03-02T01:05:23;1.60;99.90
33803;DHT22;20110;53.120;5.786;2023-03-02T01:07:49;1.70;99.90
33803;DHT22;20110;53.120;5.786;2023-03-02T01:10:15;1.70;99.90
33803;DHT22;20110;53.120;5.786;2023-03-02T01:12:41;1.70;99.90
33803;DHT22;20110;53.120;5.786;2023-03-02T01:15:08;1.70;99.90
33803;DHT22;20110;53.120;5.786;2023-03-02T01:17:34;1.70;99.90
33803;DHT22;20110;53.120;5.786;2023-03-02T01:20:00;1.40;99.90
33803;DHT22;20110;53.120;5.786;2023-03-02T01:22:26;0.90;99.90
33803;DHT22;20110;53.120;5.786;2023-03-02T01:24:52;1.00;99.90
33803;DHT22;20110;53.120;5.786;2023-03-02T01:27:18;1.30;99.90
33803;DHT22;20110;53.120;5.786;2023-03-02T01:29:45;1.30;99.90
33803;DHT22;20110;53.120;5.786;2023-03-02T01:32:10;1.50;99.90
33803;DHT22;20110;53.120;5.786;2023-03-02T01:34:36;1.40;99.90
33803;DHT22;20110;53.120;5.786;2023-03-02T01:37:02;1.50;99.90
33803;DHT22;20110;53.120;5.786;2023-03-02T01:39:28;1.50;99.90
33803;DHT22;20110;53.120;5.786;2023-03-02T01:41:54;1.50;99.90
33803;DHT22;20110;53.120;5.786;2023-03-02T01:44:40;1.50;99.90
33803;DHT22;20110;53.120;5.786;2023-03-02T01:47:27;1.50;99.90
33803;DHT22;20110;53.120;5.786;2023-03-02T01:52:42;1.30;99.90
33803;DHT22;20110;53.120;5.786;2023-03-02T01:55:11;1.30;99.90
33803;DHT22;20110;53.120;5.786;2023-03-02T01:57:42;1.20;99.90
33803;DHT22;20110;53.120;5.786;2023-03-02T02:00:17;1.20;99.90
33803;DHT22;20110;53.120;5.786;2023-03-02T02:02:49;1.10;99.90
33803;DHT22;20110;53.120;5.786;2023-03-02T02:05:22;1.00;99.90
33803;DHT22;20110;53.120;5.786;2023-03-02T02:07:51;1.00;99.90
33803;DHT22;20110;53.120;5.786;2023-03-02T02:10:17;1.00;99.90
33803;DHT22;20110;53.120;5.786;2023-03-02T02:12:42;1.10;99.90
33803;DHT22;20110;53.120;5.786;2023-03-02T02:15:09;1.10;99.90
33803;DHT22;20110;53.120;5.786;2023-03-02T02:17:35;1.10;99.90
33803;DHT22;20110;53.120;5.786;2023-03-02T02:28:21;1.20;99.90
33803;DHT22;20110;53.120;5.786;2023-03-02T02:33:55;0.60;99.90
33803;DHT22;20110;53.120;5.786;2023-03-02T02:36:26;0.90;99.90
33803;DHT22;20110;53.120;5.786;2023-03-02T02:39:00;0.90;99.90
33803;DHT22;20110;53.120;5.786;2023-03-02T02:41:34;1.00;99.90
33803;DHT22;20110;53.120;5.786;2023-03-02T02:44:03;1.00;99.90
33803;DHT22;20110;53.120;5.786;2023-03-02T02:46:29;1.10;99.90
33803;DHT22;20110;53.120;5.786;2023-03-02T02:49:00;1.00;99.90
33803;DHT22;20110;53.120;5.786;2023-03-02T02:51:28;1.10;99.90
33803;DHT22;20110;53.120;5.786;2023-03-02T02:54:03;1.10;99.90
33803;DHT22;20110;53.120;5.786;2023-03-02T02:56:32;1.10;99.90
33803;DHT22;20110;53.120;5.786;2023-03-02T02:59:05;1.20;99.90
33803;DHT22;20110;53.120;5.786;2023-03-02T03:01:37;1.20;99.90
33803;DHT22;20110;53.120;5.786;2023-03-02T03:04:05;1.10;99.90
33803;DHT22;20110;53.120;5.786;2023-03-02T03:06:33;1.10;99.90
33803;DHT22;20110;53.120;5.786;2023-03-02T03:09:09;1.10;99.90
33803;DHT22;20110;53.120;5.786;2023-03-02T03:11:38;1.00;99.90
33803;DHT22;20110;53.120;5.786;2023-03-02T03:14:12;1.00;99.90
33803;DHT22;20110;53.120;5.786;2023-03-02T03:16:44;0.80;99.90
33803;DHT22;20110;53.120;5.786;2023-03-02T03:19:28;0.90;99.90
33803;DHT22;20110;53.120;5.786;2023-03-02T03:21:58;1.10;99.90
33803;DHT22;20110;53.120;5.786;2023-03-02T03:24:26;1.20;99.90
33803;DHT22;20110;53.120;5.786;2023-03-02T03:26:53;1.20;99.90
33803;DHT22;20110;53.120;5.786;2023-03-02T03:29:23;1.20;99.90
33803;DHT22;20110;53.120;5.786;2023-03-02T03:31:51;1.10;99.90
33803;DHT22;20110;53.120;5.786;2023-03-02T03:34:18;1.10;99.90
33803;DHT22;20110;53.120;5.786;2023-03-02T03:36:45;1.10;99.90
33803;DHT22;20110;53.120;5.786;2023-03-02T03:39:12;1.00;99.90
33803;DHT22;20110;53.120;5.786;2023-03-02T03:41:40;1.00;99.90
33803;DHT22;20110;53.120;5.786;2023-03-02T03:44:06;0.90;99.90
33803;DHT22;20110;53.120;5.786;2023-03-02T03:46:32;1.00;99.90
33803;DHT22;20110;53.120;5.786;2023-03-02T03:48:58;0.80;99.90
33803;DHT22;20110;53.120;5.786;2023-03-02T03:51:24;0.90;99.90
33803;DHT22;20110;53.120;5.786;2023-03-02T03:53:50;0.80;99.90
33803;DHT22;20110;53.120;5.786;2023-03-02T03:56:31;0.90;99.90
33803;DHT22;20110;53.120;5.786;2023-03-02T03:58:59;0.90;99.90
33803;DHT22;20110;53.120;5.786;2023-03-02T04:01:39;1.00;99.90
33803;DHT22;20110;53.120;5.786;2023-03-02T04:04:11;1.00;99.90
33803;DHT22;20110;53.120;5.786;2023-03-02T04:06:40;1.00;99.90
33803;DHT22;20110;53.120;5.786;2023-03-02T04:09:06;1.00;99.90
33803;DHT22;20110;53.120;5.786;2023-03-02T04:11:35;0.90;99.90
33803;DHT22;20110;53.120;5.786;2023-03-02T04:14:07;0.90;99.90
33803;DHT22;20110;53.120;5.786;2023-03-02T04:16:33;0.80;99.90
33803;DHT22;20110;53.120;5.786;2023-03-02T04:19:01;0.90;99.90
33803;DHT22;20110;53.120;5.786;2023-03-02T04:21:35;0.80;99.90
33803;DHT22;20110;53.120;5.786;2023-03-02T04:24:02;0.80;99.90
33803;DHT22;20110;53.120;5.786;2023-03-02T04:26:29;0.80;99.90
33803;DHT22;20110;53.120;5.786;2023-03-02T04:28:55;0.70;99.90
33803;DHT22;20110;53.120;5.786;2023-03-02T04:31:20;0.40;99.90
33803;DHT22;20110;53.120;5.786;2023-03-02T04:33:46;0.40;99.90
33803;DHT22;20110;53.120;5.786;2023-03-02T04:36:12;0.40;99.90
33803;DHT22;20110;53.120;5.786;2023-03-02T04:38:38;0.10;99.90
33803;DHT22;20110;53.120;5.786;2023-03-02T04:41:04;0.20;99.90
33803;DHT22;20110;53.120;5.786;2023-03-02T04:43:30;0.40;99.90
33803;DHT22;20110;53.120;5.786;2023-03-02T04:45:56;0.40;99.90
33803;DHT22;20110;53.120;5.786;2023-03-02T04:48:23;0.60;99.90
33803;DHT22;20110;53.120;5.786;2023-03-02T04:50:49;0.60;99.90
33803;DHT22;20110;53.120;5.786;2023-03-02T04:53:15;0.70;99.90
33803;DHT22;20110;53.120;5.786;2023-03-02T04:55:41;0.70;99.90
33803;DHT22;20110;53.120;5.786;2023-03-02T04:58:08;0.80;99.90
33803;DHT22;20110;53.120;5.786;2023-03-02T05:00:34;0.50;99.90
33803;DHT22;20110;53.120;5.786;2023-03-02T05:03:01;0.50;99.90
33803;DHT22;20110;53.120;5.786;2023-03-02T05:05:28;0.50;99.90
33803;DHT22;20110;53.120;5.786;2023-03-02T05:07:56;0.50;99.90
33803;DHT22;20110;53.120;5.786;2023-03-02T05:10:23;0.50;99.90
33803;DHT22;20110;53.120;5.786;2023-03-02T05:12:50;0.70;99.90
33803;DHT22;20110;53.120;5.786;2023-03-02T05:15:29;0.60;99.90
33803;DHT22;20110;53.120;5.786;2023-03-02T05:17:58;0.40;99.90
33803;DHT22;20110;53.120;5.786;2023-03-02T05:20:25;0.40;99.90
33803;DHT22;20110;53.120;5.786;2023-03-02T05:22:55;0.40;99.90
33803;DHT22;20110;53.120;5.786;2023-03-02T05:25:24;0.40;99.90
33803;DHT22;20110;53.120;5.786;2023-03-02T05:27:52;0.40;99.90
33803;DHT22;20110;53.120;5.786;2023-03-02T05:30:19;0.40;99.90
33803;DHT22;20110;53.120;5.786;2023-03-02T05:32:45;0.30;99.90
33803;DHT22;20110;53.120;5.786;2023-03-02T05:35:11;0.40;99.90
33803;DHT22;20110;53.120;5.786;2023-03-02T05:37:37;0.40;99.90
33803;DHT22;20110;53.120;5.786;2023-03-02T05:40:11;0.40;99.90
33803;DHT22;20110;53.120;5.786;2023-03-02T05:42:40;0.30;99.90
33803;DHT22;20110;53.120;5.786;2023-03-02T05:45:11;0.30;99.90
33803;DHT22;20110;53.120;5.786;2023-03-02T05:47:42;0.30;99.90
33803;DHT22;20110;53.120;5.786;2023-03-02T05:50:08;0.30;99.90
33803;DHT22;20110;53.120;5.786;2023-03-02T05:52:35;0.30;99.90
33803;DHT22;20110;53.120;5.786;2023-03-02T05:55:00;0.30;99.90
33803;DHT22;20110;53.120;5.786;2023-03-02T05:57:26;0.20;99.90
33803;DHT22;20110;53.120;5.786;2023-03-02T05:59:52;0.10;99.90
33803;DHT22;20110;53.120;5.786;2023-03-02T06:02:18;0.30;99.90
33803;DHT22;20110;53.120;5.786;2023-03-02T06:04:44;0.30;99.90
33803;DHT22;20110;53.120;5.786;2023-03-02T06:07:10;0.40;99.90
33803;DHT22;20110;53.120;5.786;2023-03-02T06:09:39;0.30;99.90
33803;DHT22;20110;53.120;5.786;2023-03-02T06:12:06;0.30;99.90
33803;DHT22;20110;53.120;5.786;2023-03-02T06:14:34;0.30;99.90
33803;DHT22;20110;53.120;5.786;2023-03-02T06:17:00;0.30;99.90
33803;DHT22;20110;53.120;5.786;2023-03-02T06:19:26;0.60;99.90
33803;DHT22;20110;53.120;5.786;2023-03-02T06:21:52;0.60;99.90
33803;DHT22;20110;53.120;5.786;2023-03-02T06:24:18;0.60;99.90
33803;DHT22;20110;53.120;5.786;2023-03-02T06:26:44;0.60;99.90
33803;DHT22;20110;53.120;5.786;2023-03-02T06:29:10;0.70;99.90
33803;DHT22;20110;53.120;5.786;2023-03-02T06:31:36;0.90;99.90
33803;DHT22;20110;53.120;5.786;2023-03-02T06:34:02;0.70;99.90
33803;DHT22;20110;53.120;5.786;2023-03-02T06:36:28;0.80;99.90
33803;DHT22;20110;53.120;5.786;2023-03-02T06:38:54;0.70;99.90
33803;DHT22;20110;53.120;5.786;2023-03-02T06:41:19;0.70;99.90
33803;DHT22;20110;53.120;5.786;2023-03-02T06:43:46;0.70;99.90
33803;DHT22;20110;53.120;5.786;2023-03-02T06:46:12;0.70;99.90
33803;DHT22;20110;53.120;5.786;2023-03-02T06:48:37;0.60;99.90
33803;DHT22;20110;53.120;5.786;2023-03-02T06:51:03;0.60;99.90
33803;DHT22;20110;53.120;5.786;2023-03-02T06:53:30;0.50;99.90
33803;DHT22;20110;53.120;5.786;2023-03-02T06:55:56;0.60;99.90
33803;DHT22;20110;53.120;5.786;2023-03-02T06:58:22;0.70;99.90
33803;DHT22;20110;53.120;5.786;2023-03-02T07:00:47;0.70;99.90
33803;DHT22;20110;53.120;5.786;2023-03-02T07:03:13;0.60;99.90
33803;DHT22;20110;53.120;5.786;2023-03-02T07:05:39;0.70;99.90
33803;DHT22;20110;53.120;5.786;2023-03-02T07:08:05;0.70;99.90
33803;DHT22;20110;53.120;5.786;2023-03-02T07:10:31;0.70;99.90
33803;DHT22;20110;53.120;5.786;2023-03-02T07:12:57;0.70;99.90
33803;DHT22;20110;53.120;5.786;2023-03-02T07:15:23;0.90;99.90
33803;DHT22;20110;53.120;5.786;2023-03-02T07:17:49;0.90;99.90
33803;DHT22;20110;53.120;5.786;2023-03-02T07:20:17;0.90;99.90
33803;DHT22;20110;53.120;5.786;2023-03-02T07:22:44;0.90;99.90
33803;DHT22;20110;53.120;5.786;2023-03-02T07:25:11;0.90;99.90
33803;DHT22;20110;53.120;5.786;2023-03-02T07:27:38;0.70;99.90
33803;DHT22;20110;53.120;5.786;2023-03-02T07:30:05;0.80;99.90
33803;DHT22;20110;53.120;5.786;2023-03-02T07:32:32;0.70;99.90
33803;DHT22;20110;53.120;5.786;2023-03-02T07:34:57;0.30;99.90
33803;DHT22;20110;53.120;5.786;2023-03-02T07:37:23;0.10;99.90
33803;DHT22;20110;53.120;5.786;2023-03-02T07:39:49;-0.10;99.90
33803;DHT22;20110;53.120;5.786;2023-03-02T07:42:15;0.50;99.90
33803;DHT22;20110;53.120;5.786;2023-03-02T07:44:41;0.70;99.90
33803;DHT22;20110;53.120;5.786;2023-03-02T07:47:08;0.90;99.90
33803;DHT22;20110;53.120;5.786;2023-03-02T07:49:34;1.00;99.90
33803;DHT22;20110;53.120;5.786;2023-03-02T07:52:00;0.90;99.90
33803;DHT22;20110;53.120;5.786;2023-03-02T07:54:27;1.00;99.90
33803;DHT22;20110;53.120;5.786;2023-03-02T07:56:55;1.10;99.90
33803;DHT22;20110;53.120;5.786;2023-03-02T07:59:22;1.20;99.90
33803;DHT22;20110;53.120;5.786;2023-03-02T08:01:49;1.20;99.90
33803;DHT22;20110;53.120;5.786;2023-03-02T08:04:15;1.30;99.90
33803;DHT22;20110;53.120;5.786;2023-03-02T08:06:40;1.30;99.90
33803;DHT22;20110;53.120;5.786;2023-03-02T08:09:06;1.40;99.90
33803;DHT22;20110;53.120;5.786;2023-03-02T08:11:32;1.50;99.90
33803;DHT22;20110;53.120;5.786;2023-03-02T08:13:59;1.50;99.90
33803;DHT22;20110;53.120;5.786;2023-03-02T08:16:26;1.60;99.90
33803;DHT22;20110;53.120;5.786;2023-03-02T08:18:54;1.60;99.90
33803;DHT22;20110;53.120;5.786;2023-03-02T08:21:23;1.60;99.90
33803;DHT22;20110;53.120;5.786;2023-03-02T08:23:51;1.70;99.90
33803;DHT22;20110;53.120;5.786;2023-03-02T08:26:18;1.60;99.90
33803;DHT22;20110;53.120;5.786;2023-03-02T08:28:45;1.60;99.90
33803;DHT22;20110;53.120;5.786;2023-03-02T08:31:12;1.60;99.90
33803;DHT22;20110;53.120;5.786;2023-03-02T08:33:39;1.70;99.90
33803;DHT22;20110;53.120;5.786;2023-03-02T08:36:07;1.70;99.90
33803;DHT22;20110;53.120;5.786;2023-03-02T08:38:36;1.80;99.90
33803;DHT22;20110;53.120;5.786;2023-03-02T08:41:09;1.80;99.90
33803;DHT22;20110;53.120;5.786;2023-03-02T08:43:36;1.90;99.90
33803;DHT22;20110;53.120;5.786;2023-03-02T08:46:02;1.90;99.90
33803;DHT22;20110;53.120;5.786;2023-03-02T08:48:29;2.00;99.90
33803;DHT22;20110;53.120;5.786;2023-03-02T08:53:27;2.10;99.90
33803;DHT22;20110;53.120;5.786;2023-03-02T08:55:54;2.20;99.90
33803;DHT22;20110;53.120;5.786;2023-03-02T08:58:20;2.20;99.90
33803;DHT22;20110;53.120;5.786;2023-03-02T09:00:46;2.40;99.90
33803;DHT22;20110;53.120;5.786;2023-03-02T09:03:12;2.50;99.90
33803;DHT22;20110;53.120;5.786;2023-03-02T09:05:38;2.50;99.90
33803;DHT22;20110;53.120;5.786;2023-03-02T09:08:05;2.50;99.90
33803;DHT22;20110;53.120;5.786;2023-03-02T09:10:31;2.40;99.90
33803;DHT22;20110;53.120;5.786;2023-03-02T09:12:57;2.40;99.90
33803;DHT22;20110;53.120;5.786;2023-03-02T09:15:23;2.50;99.90
33803;DHT22;20110;53.120;5.786;2023-03-02T09:17:49;2.60;99.90
33803;DHT22;20110;53.120;5.786;2023-03-02T09:20:14;2.70;99.90
33803;DHT22;20110;53.120;5.786;2023-03-02T09:22:41;2.60;99.90
33803;DHT22;20110;53.120;5.786;2023-03-02T09:25:13;2.70;99.90
33803;DHT22;20110;53.120;5.786;2023-03-02T09:27:40;2.90;99.90
33803;DHT22;20110;53.120;5.786;2023-03-02T09:30:08;3.00;99.90
33803;DHT22;20110;53.120;5.786;2023-03-02T09:32:34;3.10;99.90
33803;DHT22;20110;53.120;5.786;2023-03-02T09:35:00;3.30;99.90
33803;DHT22;20110;53.120;5.786;2023-03-02T09:37:29;3.40;99.90
33803;DHT22;20110;53.120;5.786;2023-03-02T09:39:55;3.50;99.90
33803;DHT22;20110;53.120;5.786;2023-03-02T09:47:37;3.80;99.90
33803;DHT22;20110;53.120;5.786;2023-03-02T09:50:29;3.90;99.90
33803;DHT22;20110;53.120;5.786;2023-03-02T09:53:23;4.00;99.90
33803;DHT22;20110;53.120;5.786;2023-03-02T09:55:58;4.00;99.90
33803;DHT22;20110;53.120;5.786;2023-03-02T09:58:30;4.00;99.90
33803;DHT22;20110;53.120;5.786;2023-03-02T10:01:05;4.20;99.90
33803;DHT22;20110;53.120;5.786;2023-03-02T10:03:44;4.30;99.90
33803;DHT22;20110;53.120;5.786;2023-03-02T10:06:16;4.40;99.90
33803;DHT22;20110;53.120;5.786;2023-03-02T10:08:42;4.50;99.90
33803;DHT22;20110;53.120;5.786;2023-03-02T10:11:38;4.60;99.90
33803;DHT22;20110;53.120;5.786;2023-03-02T10:14:28;4.50;99.90
33803;DHT22;20110;53.120;5.786;2023-03-02T10:17:15;4.80;99.90
33803;DHT22;20110;53.120;5.786;2023-03-02T10:19:59;5.20;99.90
33803;DHT22;20110;53.120;5.786;2023-03-02T10:22:37;5.70;99.90
33803;DHT22;20110;53.120;5.786;2023-03-02T10:27:54;6.50;99.90
33803;DHT22;20110;53.120;5.786;2023-03-02T10:30:30;6.30;99.90
33803;DHT22;20110;53.120;5.786;2023-03-02T10:33:15;6.30;99.90
33803;DHT22;20110;53.120;5.786;2023-03-02T10:35:49;6.20;99.90
33803;DHT22;20110;53.120;5.786;2023-03-02T10:38:21;5.90;99.90
33803;DHT22;20110;53.120;5.786;2023-03-02T10:40:54;5.60;99.90
33803;DHT22;20110;53.120;5.786;2023-03-02T10:43:36;5.60;99.90
33803;DHT22;20110;53.120;5.786;2023-03-02T10:46:11;5.90;99.90
33803;DHT22;20110;53.120;5.786;2023-03-02T10:48:51;6.30;99.90
33803;DHT22;20110;53.120;5.786;2023-03-02T10:54:12;6.80;99.90
33803;DHT22;20110;53.120;5.786;2023-03-02T10:56:48;7.00;99.90
33803;DHT22;20110;53.120;5.786;2023-03-02T11:02:13;7.10;99.90
33803;DHT22;20110;53.120;5.786;2023-03-02T11:04:39;7.30;99.90
33803;DHT22;20110;53.120;5.786;2023-03-02T11:07:17;7.40;99.90
33803;DHT22;20110;53.120;5.786;2023-03-02T11:10:18;7.20;99.90
33803;DHT22;20110;53.120;5.786;2023-03-02T11:12:51;7.50;99.90
33803;DHT22;20110;53.120;5.786;2023-03-02T11:15:32;7.50;99.90
33803;DHT22;20110;53.120;5.786;2023-03-02T11:18:25;7.70;99.90
33803;DHT22;20110;53.120;5.786;2023-03-02T11:21:10;7.70;99.90
33803;DHT22;20110;53.120;5.786;2023-03-02T11:26:38;8.00;99.90
33803;DHT22;20110;53.120;5.786;2023-03-02T11:29:26;8.00;99.90
33803;DHT22;20110;53.120;5.786;2023-03-02T11:32:23;8.30;99.90
33803;DHT22;20110;53.120;5.786;2023-03-02T11:34:59;8.50;99.90
33803;DHT22;20110;53.120;5.786;2023-03-02T11:42:50;8.80;99.90
33803;DHT22;20110;53.120;5.786;2023-03-02T11:45:23;8.80;99.90
33803;DHT22;20110;53.120;5.786;2023-03-02T11:48:01;8.60;99.90
33803;DHT22;20110;53.120;5.786;2023-03-02T11:53:32;8.90;99.90
33803;DHT22;20110;53.120;5.786;2023-03-02T11:56:05;9.10;99.90
33803;DHT22;20110;53.120;5.786;2023-03-02T11:58:32;9.30;99.90
33803;DHT22;20110;53.120;5.786;2023-03-02T12:00:59;9.40;99.90
33803;DHT22;20110;53.120;5.786;2023-03-02T12:06:04;9.60;98.80
33803;DHT22;20110;53.120;5.786;2023-03-02T12:08:38;9.60;99.20
33803;DHT22;20110;53.120;5.786;2023-03-02T12:13:59;9.20;99.90
33803;DHT22;20110;53.120;5.786;2023-03-02T12:19:11;9.20;99.90
33803;DHT22;20110;53.120;5.786;2023-03-02T12:22:05;9.40;99.90
33803;DHT22;20110;53.120;5.786;2023-03-02T12:24:40;9.10;99.90
33803;DHT22;20110;53.120;5.786;2023-03-02T12:30:20;9.00;99.10
33803;DHT22;20110;53.120;5.786;2023-03-02T12:35:47;9.10;99.90
33803;DHT22;20110;53.120;5.786;2023-03-02T12:38:33;8.90;99.90
33803;DHT22;20110;53.120;5.786;2023-03-02T12:47:13;8.50;99.90
33803;DHT22;20110;53.120;5.786;2023-03-02T12:50:17;8.50;99.90
33803;DHT22;20110;53.120;5.786;2023-03-02T12:52:57;8.10;99.90
33803;DHT22;20110;53.120;5.786;2023-03-02T12:55:27;7.90;99.90
33803;DHT22;20110;53.120;5.786;2023-03-02T12:58:11;7.90;99.90
33803;DHT22;20110;53.120;5.786;2023-03-02T13:00:49;7.70;99.90
33803;DHT22;20110;53.120;5.786;2023-03-02T13:03:17;7.60;99.90
33803;DHT22;20110;53.120;5.786;2023-03-02T13:05:43;7.60;99.90
33803;DHT22;20110;53.120;5.786;2023-03-02T13:08:21;7.50;99.90
33803;DHT22;20110;53.120;5.786;2023-03-02T13:10:55;7.50;99.90
33803;DHT22;20110;53.120;5.786;2023-03-02T13:13:35;7.50;99.90
33803;DHT22;20110;53.120;5.786;2023-03-02T13:16:16;7.50;99.90
33803;DHT22;20110;53.120;5.786;2023-03-02T13:18:50;7.60;99.90
33803;DHT22;20110;53.120;5.786;2023-03-02T13:21:30;7.70;99.90
33803;DHT22;20110;53.120;5.786;2023-03-02T13:23:59;7.60;99.90
33803;DHT22;20110;53.120;5.786;2023-03-02T13:26:29;7.50;99.90
33803;DHT22;20110;53.120;5.786;2023-03-02T13:29:16;7.30;99.90
33803;DHT22;20110;53.120;5.786;2023-03-02T13:31:48;7.30;99.90
33803;DHT22;20110;53.120;5.786;2023-03-02T13:34:22;7.30;99.90
33803;DHT22;20110;53.120;5.786;2023-03-02T13:36:51;7.20;99.90
33803;DHT22;20110;53.120;5.786;2023-03-02T13:39:29;7.20;99.90
33803;DHT22;20110;53.120;5.786;2023-03-02T13:42:01;7.20;99.90
33803;DHT22;20110;53.120;5.786;2023-03-02T13:44:33;7.20;99.90
33803;DHT22;20110;53.120;5.786;2023-03-02T13:47:00;7.10;99.90
33803;DHT22;20110;53.120;5.786;2023-03-02T13:49:29;7.00;99.90
33803;DHT22;20110;53.120;5.786;2023-03-02T13:52:03;7.00;99.90
33803;DHT22;20110;53.120;5.786;2023-03-02T13:54:34;7.00;99.90
33803;DHT22;20110;53.120;5.786;2023-03-02T13:57:02;6.90;99.90
33803;DHT22;20110;53.120;5.786;2023-03-02T13:59:32;6.90;99.90
33803;DHT22;20110;53.120;5.786;2023-03-02T14:02:00;6.90;99.90
33803;DHT22;20110;53.120;5.786;2023-03-02T14:04:26;6.80;99.90
33803;DHT22;20110;53.120;5.786;2023-03-02T14:06:53;6.80;99.90
33803;DHT22;20110;53.120;5.786;2023-03-02T14:09:19;6.90;99.90
33803;DHT22;20110;53.120;5.786;2023-03-02T14:11:50;6.90;99.90
33803;DHT22;20110;53.120;5.786;2023-03-02T14:14:20;6.80;99.90
33803;DHT22;20110;53.120;5.786;2023-03-02T14:16:49;6.90;99.90
33803;DHT22;20110;53.120;5.786;2023-03-02T14:19:15;6.90;99.90
33803;DHT22;20110;53.120;5.786;2023-03-02T14:21:43;6.80;99.90
33803;DHT22;20110;53.120;5.786;2023-03-02T14:24:10;6.70;99.90
33803;DHT22;20110;53.120;5.786;2023-03-02T14:26:37;6.70;99.90
33803;DHT22;20110;53.120;5.786;2023-03-02T14:29:28;6.70;99.90
33803;DHT22;20110;53.120;5.786;2023-03-02T14:32:01;6.60;99.90
33803;DHT22;20110;53.120;5.786;2023-03-02T14:34:28;6.50;99.90
33803;DHT22;20110;53.120;5.786;2023-03-02T14:36:57;6.50;99.90
33803;DHT22;20110;53.120;5.786;2023-03-02T14:39:45;6.50;99.90
33803;DHT22;20110;53.120;5.786;2023-03-02T14:42:17;6.40;99.90
33803;DHT22;20110;53.120;5.786;2023-03-02T14:44:46;6.40;99.90
33803;DHT22;20110;53.120;5.786;2023-03-02T14:47:14;6.30;99.90
33803;DHT22;20110;53.120;5.786;2023-03-02T14:49:42;6.30;99.90
33803;DHT22;20110;53.120;5.786;2023-03-02T14:52:12;6.30;99.90
33803;DHT22;20110;53.120;5.786;2023-03-02T14:54:53;6.20;99.90
33803;DHT22;20110;53.120;5.786;2023-03-02T14:57:28;6.10;99.90
33803;DHT22;20110;53.120;5.786;2023-03-02T14:59:57;6.10;99.90
33803;DHT22;20110;53.120;5.786;2023-03-02T15:02:27;6.00;99.90
33803;DHT22;20110;53.120;5.786;2023-03-02T15:04:56;5.90;99.90
33803;DHT22;20110;53.120;5.786;2023-03-02T15:07:23;5.90;99.90
33803;DHT22;20110;53.120;5.786;2023-03-02T15:09:50;6.00;99.90
33803;DHT22;20110;53.120;5.786;2023-03-02T15:12:16;5.80;99.90
33803;DHT22;20110;53.120;5.786;2023-03-02T15:14:41;5.80;99.90
33803;DHT22;20110;53.120;5.786;2023-03-02T15:17:09;5.80;99.90
33803;DHT22;20110;53.120;5.786;2023-03-02T15:19:35;5.70;99.90
33803;DHT22;20110;53.120;5.786;2023-03-02T15:22:00;5.70;99.90
33803;DHT22;20110;53.120;5.786;2023-03-02T15:24:26;5.70;99.90
33803;DHT22;20110;53.120;5.786;2023-03-02T15:26:52;5.60;99.90
33803;DHT22;20110;53.120;5.786;2023-03-02T15:29:19;5.60;99.90
33803;DHT22;20110;53.120;5.786;2023-03-02T15:31:45;5.50;99.90
33803;DHT22;20110;53.120;5.786;2023-03-02T15:34:11;5.40;99.90
33803;DHT22;20110;53.120;5.786;2023-03-02T15:36:38;5.40;99.90
33803;DHT22;20110;53.120;5.786;2023-03-02T15:39:05;5.40;99.90
33803;DHT22;20110;53.120;5.786;2023-03-02T15:41:33;5.30;99.90
33803;DHT22;20110;53.120;5.786;2023-03-02T15:43:59;5.20;99.90
33803;DHT22;20110;53.120;5.786;2023-03-02T15:46:25;5.10;99.90
33803;DHT22;20110;53.120;5.786;2023-03-02T15:48:51;5.00;99.90
33803;DHT22;20110;53.120;5.786;2023-03-02T15:51:18;4.90;99.90
33803;DHT22;20110;53.120;5.786;2023-03-02T15:53:44;4.80;99.90
33803;DHT22;20110;53.120;5.786;2023-03-02T15:56:12;4.70;99.90
33803;DHT22;20110;53.120;5.786;2023-03-02T15:58:48;4.60;99.90
33803;DHT22;20110;53.120;5.786;2023-03-02T16:01:14;4.50;99.90
33803;DHT22;20110;53.120;5.786;2023-03-02T16:03:42;4.40;99.90
33803;DHT22;20110;53.120;5.786;2023-03-02T16:06:10;4.40;99.90
33803;DHT22;20110;53.120;5.786;2023-03-02T16:08:36;4.30;99.90
33803;DHT22;20110;53.120;5.786;2023-03-02T16:11:06;4.20;99.90
33803;DHT22;20110;53.120;5.786;2023-03-02T16:13:34;4.20;99.90
33803;DHT22;20110;53.120;5.786;2023-03-02T16:16:04;4.10;99.90
33803;DHT22;20110;53.120;5.786;2023-03-02T16:18:30;4.10;99.90
33803;DHT22;20110;53.120;5.786;2023-03-02T16:20:57;4.00;99.90
33803;DHT22;20110;53.120;5.786;2023-03-02T16:23:23;4.00;99.90
33803;DHT22;20110;53.120;5.786;2023-03-02T16:25:49;3.90;99.90
33803;DHT22;20110;53.120;5.786;2023-03-02T16:28:19;3.80;99.90
33803;DHT22;20110;53.120;5.786;2023-03-02T16:30:45;3.80;99.90
33803;DHT22;20110;53.120;5.786;2023-03-02T16:33:14;3.80;99.90
33803;DHT22;20110;53.120;5.786;2023-03-02T16:35:42;3.70;99.90
33803;DHT22;20110;53.120;5.786;2023-03-02T16:38:08;3.60;99.90
33803;DHT22;20110;53.120;5.786;2023-03-02T16:40:36;3.50;99.90
33803;DHT22;20110;53.120;5.786;2023-03-02T16:43:05;3.40;99.90
33803;DHT22;20110;53.120;5.786;2023-03-02T16:45:33;3.40;99.90
33803;DHT22;20110;53.120;5.786;2023-03-02T16:48:00;3.20;99.90
33803;DHT22;20110;53.120;5.786;2023-03-02T16:50:26;3.30;99.90
33803;DHT22;20110;53.120;5.786;2023-03-02T16:52:52;3.10;99.90
33803;DHT22;20110;53.120;5.786;2023-03-02T16:55:18;3.00;99.90
33803;DHT22;20110;53.120;5.786;2023-03-02T16:57:45;2.90;99.90
33803;DHT22;20110;53.120;5.786;2023-03-02T17:00:13;2.80;99.90
33803;DHT22;20110;53.120;5.786;2023-03-02T17:02:43;2.70;99.90